Time;durP1;ratioP1;P1;durP2;ratioP2;P2;SDS_P1;SDS_P2;PMS_P1;PMS_P2;Temp;Humidity;BMP_temperature;BMP_pressure;BME280_temperature;BME280_humidity;BME280_pressure;Samples;Min_cycle;Max_cycle;Signal;HPM_P1;HPM_P2
2022/02/07 00:00:37;;;;;;;4.25;1.95;;;;;;;;;;4995178;28;20030;-67
2022/02/07 00:03:11;;;;;;;5.82;2.30;;;;;;;;;;4994141;28;20033;-67
2022/02/07 00:05:38;;;;;;;7.63;4.18;;;;;;;;;;4994897;28;20436;-67
2022/02/07 00:08:06;;;;;;;5.20;2.35;;;;;;;;;;4993721;28;20396;-66
2022/02/07 00:10:32;;;;;;;5.70;1.92;;;;;;;;;;4993830;28;20438;-67
2022/02/07 00:12:59;;;;;;;5.25;3.00;;;;;;;;;;4993968;28;20375;-66
2022/02/07 00:15:26;;;;;;;6.88;2.63;;;;;;;;;;4994451;28;20109;-65
2022/02/07 00:17:52;;;;;;;6.75;3.05;;;;;;;;;;4994431;28;20030;-66
2022/02/07 00:20:20;;;;;;;5.93;2.85;;;;;;;;;;4994433;28;20563;-67
2022/02/07 00:22:47;;;;;;;5.90;2.45;;;;;;;;;;4993878;28;20034;-67
2022/02/07 00:25:14;;;;;;;3.95;1.30;;;;;;;;;;4994277;28;20645;-67
2022/02/07 00:27:40;;;;;;;5.78;2.35;;;;;;;;;;4993051;28;20038;-70
2022/02/07 00:30:07;;;;;;;10.35;3.60;;;;;;;;;;4994319;28;20045;-69
2022/02/07 00:32:33;;;;;;;5.70;2.50;;;;;;;;;;4994474;28;20054;-67
2022/02/07 00:34:59;;;;;;;6.70;2.35;;;;;;;;;;4993466;28;20053;-68
2022/02/07 00:37:29;;;;;;;10.95;4.25;;;;;;;;;;4994389;28;20026;-67
2022/02/07 00:40:16;;;;;;;4.53;1.98;;;;;;;;;;4994302;28;20098;-67
2022/02/07 00:42:53;;;;;;;9.35;3.15;;;;;;;;;;4994116;28;20023;-67
2022/02/07 00:48:00;;;;;;;5.40;2.38;;;;;;;;;;4994471;28;20030;-67
2022/02/07 00:50:27;;;;;;;4.50;0.95;;;;;;;;;;4994193;28;20025;-67
2022/02/07 00:52:53;;;;;;;4.70;2.47;;;;;;;;;;4993442;28;20049;-69
2022/02/07 00:55:19;;;;;;;2.45;1.30;;;;;;;;;;4993653;28;20030;-66
2022/02/07 00:57:45;;;;;;;1.83;1.15;;;;;;;;;;4993821;28;20026;-67
2022/02/07 01:00:11;;;;;;;14.25;6.30;;;;;;;;;;4993674;28;20643;-68
2022/02/07 01:02:37;;;;;;;2.47;1.63;;;;;;;;;;4993716;28;20681;-67
2022/02/07 01:05:04;;;;;;;8.07;4.50;;;;;;;;;;4993326;28;20118;-69
2022/02/07 01:07:30;;;;;;;8.18;4.80;;;;;;;;;;4992560;28;20117;-67
2022/02/07 01:09:57;;;;;;;7.82;3.97;;;;;;;;;;4993630;28;20109;-68
2022/02/07 01:12:41;;;;;;;9.38;4.47;;;;;;;;;;4993489;28;20099;-67
2022/02/07 01:23:27;;;;;;;6.82;3.15;;;;;;;;;;4992691;28;20026;-67
2022/02/07 01:57:53;;;;;;;7.47;2.15;;;;;;;;;;5013093;28;20121;-70
2022/02/07 02:00:19;;;;;;;13.30;3.70;;;;;;;;;;5012812;28;20029;-70
2022/02/07 02:02:46;;;;;;;8.32;2.28;;;;;;;;;;5012082;28;20018;-70
2022/02/07 02:05:12;;;;;;;10.88;4.20;;;;;;;;;;5012650;28;20022;-71
2022/02/07 02:07:40;;;;;;;8.10;2.78;;;;;;;;;;5012633;28;20457;-70
2022/02/07 02:10:06;;;;;;;14.05;2.58;;;;;;;;;;5012589;28;20028;-70
2022/02/07 02:12:37;;;;;;;6.85;2.25;;;;;;;;;;5012300;28;20030;-72
2022/02/07 02:46:56;;;;;;;5.78;2.45;;;;;;;;;;5012288;28;20045;-70
2022/02/07 02:49:24;;;;;;;7.45;2.83;;;;;;;;;;5012434;28;20030;-70
2022/02/07 02:51:50;;;;;;;13.05;2.88;;;;;;;;;;5011009;28;20022;-71
2022/02/07 02:54:16;;;;;;;8.98;2.40;;;;;;;;;;5009883;28;20116;-71
2022/02/07 02:56:42;;;;;;;9.55;2.15;;;;;;;;;;5010383;28;20476;-70
2022/02/07 02:59:08;;;;;;;6.10;2.20;;;;;;;;;;5011962;28;20033;-70
2022/02/07 03:01:34;;;;;;;11.48;2.50;;;;;;;;;;5012272;28;20018;-70
2022/02/07 03:04:00;;;;;;;6.07;1.65;;;;;;;;;;5011340;28;20130;-71
2022/02/07 03:06:26;;;;;;;11.25;2.70;;;;;;;;;;5011935;28;20026;-70
2022/02/07 03:08:52;;;;;;;8.50;2.72;;;;;;;;;;5012019;28;20399;-70
2022/02/07 03:11:21;;;;;;;7.05;2.22;;;;;;;;;;5010843;28;20073;-69
2022/02/07 03:18:59;;;;;;;8.93;2.28;;;;;;;;;;4992324;28;20041;-70
2022/02/07 03:21:25;;;;;;;10.90;3.35;;;;;;;;;;4992177;28;20030;-70
2022/02/07 03:23:51;;;;;;;7.38;2.35;;;;;;;;;;4991503;28;20771;-71
2022/02/07 03:26:19;;;;;;;4.85;1.52;;;;;;;;;;4991962;28;20042;-70
2022/02/07 03:28:48;;;;;;;11.20;2.42;;;;;;;;;;4992626;28;20038;-70
2022/02/07 03:31:14;;;;;;;3.50;1.70;;;;;;;;;;4992236;28;20029;-70
2022/02/07 03:33:40;;;;;;;7.35;2.03;;;;;;;;;;4991411;28;20031;-71
2022/02/07 03:36:06;;;;;;;6.65;2.08;;;;;;;;;;4991972;28;20034;-71
2022/02/07 03:38:32;;;;;;;6.07;1.58;;;;;;;;;;4992103;28;20022;-69
2022/02/07 03:40:58;;;;;;;7.72;2.20;;;;;;;;;;4991820;28;20108;-69
2022/02/07 03:43:24;;;;;;;9.60;2.53;;;;;;;;;;4991335;28;20058;-69
2022/02/07 03:45:50;;;;;;;4.38;2.03;;;;;;;;;;4994063;28;20046;-69
2022/02/07 03:48:16;;;;;;;5.88;2.40;;;;;;;;;;4995298;28;20498;-70
2022/02/07 03:50:42;;;;;;;7.50;2.97;;;;;;;;;;4995293;28;20027;-70
2022/02/07 03:53:08;;;;;;;8.18;2.75;;;;;;;;;;4994724;28;20034;-71
2022/02/07 03:55:34;;;;;;;6.68;2.00;;;;;;;;;;4995295;28;20031;-71
2022/02/07 03:58:00;;;;;;;7.47;2.33;;;;;;;;;;4995706;28;20025;-70
2022/02/07 04:00:26;;;;;;;4.85;1.40;;;;;;;;;;4995308;28;20508;-69
2022/02/07 04:02:54;;;;;;;13.27;2.30;;;;;;;;;;4995186;28;20038;-70
2022/02/07 04:07:59;;;;;;;6.03;2.88;;;;;;;;;;4995150;28;20103;-70
2022/02/07 04:10:27;;;;;;;7.38;2.05;;;;;;;;;;4993691;28;20029;-70
2022/02/07 04:12:58;;;;;;;6.97;2.05;;;;;;;;;;4993025;28;20109;-70
2022/02/07 04:15:24;;;;;;;6.90;2.55;;;;;;;;;;4994635;28;20036;-70
2022/02/07 04:17:58;;;;;;;16.90;2.65;;;;;;;;;;4994630;28;20018;-69
2022/02/07 04:20:24;;;;;;;10.88;2.53;;;;;;;;;;4994851;28;20023;-69
2022/02/07 04:22:50;;;;;;;5.43;2.15;;;;;;;;;;4994147;28;20062;-69
2022/02/07 04:25:16;;;;;;;7.10;1.48;;;;;;;;;;4994416;28;20030;-69
2022/02/07 04:27:42;;;;;;;6.63;1.88;;;;;;;;;;4995005;28;20504;-69
2022/02/07 04:30:09;;;;;;;9.38;2.55;;;;;;;;;;4994754;28;20035;-70
2022/02/07 04:32:35;;;;;;;6.82;2.63;;;;;;;;;;4993311;28;20026;-71
2022/02/07 04:35:01;;;;;;;13.38;3.15;;;;;;;;;;4992482;28;20034;-71
2022/02/07 04:37:27;;;;;;;7.50;2.35;;;;;;;;;;4994949;28;20023;-72
2022/02/07 04:39:54;;;;;;;12.02;2.22;;;;;;;;;;4994627;28;20030;-71
2022/02/07 04:42:22;;;;;;;8.98;2.75;;;;;;;;;;4993299;28;20026;-69
2022/02/07 04:45:09;;;;;;;5.22;1.83;;;;;;;;;;4993813;28;20034;-70
2022/02/07 04:55:33;;;;;;;6.22;2.42;;;;;;;;;;4994051;28;20037;-71
2022/02/07 04:58:08;;;;;;;6.28;1.80;;;;;;;;;;4995129;28;20488;-71
2022/02/07 05:00:50;;;;;;;11.35;2.83;;;;;;;;;;4993544;28;20027;-70
2022/02/07 05:03:22;;;;;;;4.43;2.00;;;;;;;;;;4994479;28;20053;-70
2022/02/07 05:13:50;;;;;;;9.13;1.90;;;;;;;;;;4993434;28;20037;-73
2022/02/07 05:16:24;;;;;;;4.53;1.35;;;;;;;;;;5009191;28;20030;-70
2022/02/07 05:18:53;;;;;;;6.47;1.85;;;;;;;;;;4994232;28;20093;-70
2022/02/07 05:21:19;;;;;;;7.43;2.92;;;;;;;;;;4994518;28;20269;-70
2022/02/07 05:23:45;;;;;;;5.30;2.30;;;;;;;;;;4992866;28;20018;-70
2022/02/07 05:26:11;;;;;;;10.85;1.58;;;;;;;;;;4992320;28;20412;-69
2022/02/07 05:28:38;;;;;;;6.13;2.00;;;;;;;;;;4992570;28;20515;-71
2022/02/07 05:31:04;;;;;;;12.10;2.75;;;;;;;;;;5000196;28;20029;-71
2022/02/07 05:33:30;;;;;;;8.75;2.10;;;;;;;;;;5012139;28;20033;-71
2022/02/07 05:35:56;;;;;;;5.75;2.13;;;;;;;;;;5012196;28;20025;-70
2022/02/07 05:38:22;;;;;;;10.13;2.55;;;;;;;;;;5012451;28;20063;-70
2022/02/07 05:40:58;;;;;;;5.22;1.50;;;;;;;;;;5005810;28;20130;-73
2022/02/07 05:43:25;;;;;;;6.68;1.92;;;;;;;;;;5007742;28;20114;-71
2022/02/07 05:45:51;;;;;;;5.53;1.83;;;;;;;;;;4993360;28;20400;-71
2022/02/07 05:48:17;;;;;;;5.55;1.85;;;;;;;;;;4993548;28;20018;-71
2022/02/07 05:50:43;;;;;;;5.05;1.45;;;;;;;;;;5008363;28;20026;-72
2022/02/07 05:53:09;;;;;;;11.45;3.42;;;;;;;;;;5007415;28;20490;-71
2022/02/07 05:55:35;;;;;;;19.25;2.28;;;;;;;;;;4993259;28;20102;-70
2022/02/07 05:58:01;;;;;;;5.70;1.67;;;;;;;;;;5008427;28;20030;-71
2022/02/07 06:00:32;;;;;;;10.82;2.85;;;;;;;;;;4993521;28;20033;-70
2022/02/07 06:02:59;;;;;;;9.02;2.30;;;;;;;;;;4993013;28;20138;-71
2022/02/07 06:05:25;;;;;;;7.22;1.70;;;;;;;;;;4993702;28;20548;-71
2022/02/07 06:07:51;;;;;;;10.18;2.45;;;;;;;;;;4993345;28;20033;-71
2022/02/07 06:10:17;;;;;;;6.82;1.63;;;;;;;;;;5008604;28;20025;-70
2022/02/07 06:12:45;;;;;;;5.95;1.50;;;;;;;;;;4993617;28;20069;-70
2022/02/07 06:15:11;;;;;;;8.25;2.28;;;;;;;;;;4993615;28;20034;-71
2022/02/07 06:17:37;;;;;;;8.48;2.08;;;;;;;;;;4993916;28;20485;-71
2022/02/07 06:20:04;;;;;;;6.65;1.23;;;;;;;;;;4993769;28;20433;-71
2022/02/07 06:22:30;;;;;;;6.45;1.75;;;;;;;;;;4993530;28;20410;-72
2022/02/07 06:24:57;;;;;;;6.43;2.08;;;;;;;;;;4993192;28;20030;-70
2022/02/07 06:27:23;;;;;;;9.68;2.20;;;;;;;;;;4993576;28;20054;-70
2022/02/07 06:29:49;;;;;;;7.00;1.10;;;;;;;;;;5008739;28;20022;-70
2022/02/07 06:32:15;;;;;;;9.80;3.38;;;;;;;;;;4993313;28;20034;-70
2022/02/07 06:34:41;;;;;;;9.05;1.98;;;;;;;;;;4992688;28;20469;-71
2022/02/07 06:37:07;;;;;;;8.98;2.35;;;;;;;;;;4992996;28;20077;-71
2022/02/07 06:39:33;;;;;;;12.88;1.40;;;;;;;;;;4993018;28;20031;-70
2022/02/07 06:41:59;;;;;;;9.57;2.17;;;;;;;;;;4992563;28;20018;-70
2022/02/07 06:44:27;;;;;;;7.25;2.00;;;;;;;;;;4992268;28;20065;-71
2022/02/07 06:46:53;;;;;;;7.22;2.15;;;;;;;;;;4992849;28;20072;-70
2022/02/07 06:49:19;;;;;;;7.30;1.52;;;;;;;;;;4993008;28;20481;-70
2022/02/07 06:51:45;;;;;;;8.75;1.77;;;;;;;;;;4993020;28;20042;-70
2022/02/07 06:54:11;;;;;;;5.95;1.20;;;;;;;;;;4992089;28;20022;-70
2022/02/07 06:56:37;;;;;;;8.10;1.70;;;;;;;;;;4993038;28;20153;-71
2022/02/07 06:59:03;;;;;;;8.20;1.90;;;;;;;;;;5007743;28;20030;-71
2022/02/07 07:01:30;;;;;;;6.68;2.42;;;;;;;;;;4992724;28;20026;-71
2022/02/07 07:03:56;;;;;;;5.75;1.42;;;;;;;;;;5007016;28;20027;-72
2022/02/07 07:06:22;;;;;;;8.98;1.45;;;;;;;;;;4992688;28;20049;-72
2022/02/07 07:08:54;;;;;;;8.13;2.25;;;;;;;;;;4992791;28;20427;-72
2022/02/07 07:11:23;;;;;;;5.95;2.13;;;;;;;;;;4992472;28;20025;-72
2022/02/07 07:13:54;;;;;;;4.95;1.55;;;;;;;;;;4992035;28;20076;-71
2022/02/07 07:18:50;;;;;;;9.73;2.47;;;;;;;;;;4993479;28;20037;-70
2022/02/07 07:21:16;;;;;;;9.65;2.28;;;;;;;;;;4996780;28;20461;-72
2022/02/07 07:23:43;;;;;;;7.55;1.92;;;;;;;;;;4995886;28;20034;-73
2022/02/07 07:26:09;;;;;;;8.25;1.90;;;;;;;;;;5030099;23;20042;-70
2022/02/07 07:28:37;;;;;;;9.60;2.00;;;;;;;;;;4992563;28;20034;-69
2022/02/07 07:31:05;;;;;;;4.88;1.63;;;;;;;;;;4975318;28;20023;-72
2022/02/07 07:33:33;;;;;;;9.93;1.80;;;;;;;;;;4973236;28;20018;-71
2022/02/07 07:35:59;;;;;;;5.05;1.20;;;;;;;;;;4975504;28;20734;-72
2022/02/07 07:38:25;;;;;;;3.70;1.60;;;;;;;;;;4975599;28;20098;-71
2022/02/07 07:40:52;;;;;;;5.78;1.52;;;;;;;;;;4974280;28;20027;-72
2022/02/07 07:43:18;;;;;;;45.22;16.92;;;;;;;;;;4974242;28;20042;-72
2022/02/07 07:45:55;;;;;;;217.63;83.15;;;;;;;;;;4974202;28;20041;-71
2022/02/07 07:48:24;;;;;;;147.35;53.15;;;;;;;;;;4975983;28;20517;-71
2022/02/07 07:50:55;;;;;;;123.45;44.50;;;;;;;;;;4975311;28;20073;-72
2022/02/07 07:53:43;;;;;;;172.70;60.17;;;;;;;;;;4974149;28;20473;-72
2022/02/07 08:01:50;;;;;;;105.80;36.75;;;;;;;;;;4975680;28;20042;-71
2022/02/07 08:04:18;;;;;;;67.10;23.80;;;;;;;;;;4974847;28;20078;-71
2022/02/07 08:09:22;;;;;;;81.32;28.15;;;;;;;;;;4975465;28;20054;-71
2022/02/07 08:11:55;;;;;;;25.25;9.77;;;;;;;;;;4974336;28;20027;-74
2022/02/07 08:14:22;;;;;;;84.13;29.80;;;;;;;;;;4973585;28;20037;-72
2022/02/07 08:16:52;;;;;;;96.05;36.67;;;;;;;;;;4973769;28;20161;-71
2022/02/07 08:19:18;;;;;;;28.35;10.38;;;;;;;;;;4975363;28;20019;-73
2022/02/07 08:21:44;;;;;;;114.15;42.08;;;;;;;;;;4975092;28;20122;-72
2022/02/07 08:24:09;;;;;;;161.05;63.85;;;;;;;;;;4974241;28;20023;-71
2022/02/07 08:26:35;;;;;;;94.35;36.72;;;;;;;;;;4974546;28;20445;-71
2022/02/07 08:29:01;;;;;;;39.20;14.93;;;;;;;;;;4974738;28;20030;-70
2022/02/07 08:31:27;;;;;;;25.58;9.38;;;;;;;;;;4974423;28;20030;-71
2022/02/07 08:33:53;;;;;;;46.30;17.80;;;;;;;;;;4974329;28;20031;-71
2022/02/07 08:36:20;;;;;;;57.20;22.33;;;;;;;;;;4974678;28;20027;-70
2022/02/07 08:38:46;;;;;;;25.67;9.38;;;;;;;;;;4975200;28;20450;-70
2022/02/07 08:41:11;;;;;;;27.23;8.40;;;;;;;;;;4974641;28;20406;-70
2022/02/07 08:43:38;;;;;;;33.45;13.63;;;;;;;;;;5000229;28;20018;-70
2022/02/07 08:46:04;;;;;;;29.83;10.68;;;;;;;;;;4993908;28;20027;-74
2022/02/07 08:48:30;;;;;;;28.23;11.63;;;;;;;;;;4994720;28;20018;-71
2022/02/07 08:50:57;;;;;;;13.93;6.38;;;;;;;;;;4992473;28;20073;-70
2022/02/07 08:53:26;;;;;;;29.80;12.05;;;;;;;;;;4993298;28;20034;-72
2022/02/07 08:55:53;;;;;;;18.45;8.68;;;;;;;;;;4976677;28;20023;-72
2022/02/07 08:58:24;;;;;;;42.00;16.10;;;;;;;;;;4994011;28;20097;-72
2022/02/07 09:03:42;;;;;;;;;;;;;;;;;;;;;
2022/02/07 09:11:08;;;;;;;24.17;9.18;;;;;;;;;;4993901;28;20121;-71
2022/02/07 09:13:36;;;;;;;25.73;11.82;;;;;;;;;;4975251;28;20022;-71
2022/02/07 09:16:15;;;;;;;123.10;54.60;;;;;;;;;;4993413;28;20396;-71
2022/02/07 09:18:42;;;;;;;50.92;21.45;;;;;;;;;;4993869;28;20029;-71
2022/02/07 09:21:08;;;;;;;57.33;26.45;;;;;;;;;;4994160;28;20031;-70
2022/02/07 09:23:35;;;;;;;82.50;35.75;;;;;;;;;;4993131;28;20053;-70
2022/02/07 09:26:01;;;;;;;35.53;15.48;;;;;;;;;;4993216;28;20076;-72
2022/02/07 09:28:28;;;;;;;44.50;18.35;;;;;;;;;;4993041;28;20443;-71
2022/02/07 09:30:54;;;;;;;32.83;12.63;;;;;;;;;;4975826;28;20369;-74
2022/02/07 09:33:21;;;;;;;35.85;15.98;;;;;;;;;;4993026;28;20044;-74
2022/02/07 09:35:49;;;;;;;18.80;7.32;;;;;;;;;;4993983;28;20030;-75
2022/02/07 09:38:15;;;;;;;32.30;15.05;;;;;;;;;;4993863;28;20105;-73
2022/02/07 09:40:42;;;;;;;33.60;13.88;;;;;;;;;;4993263;28;20484;-72
2022/02/07 09:43:09;;;;;;;34.25;13.98;;;;;;;;;;4973919;28;20062;-71
2022/02/07 09:45:39;;;;;;;22.67;9.77;;;;;;;;;;4992968;28;20049;-72
2022/02/07 09:48:06;;;;;;;39.85;17.13;;;;;;;;;;4975419;28;20447;-72
2022/02/07 09:50:32;;;;;;;27.35;10.20;;;;;;;;;;4992850;28;20074;-71
2022/02/07 09:52:58;;;;;;;45.38;18.70;;;;;;;;;;4974233;28;20246;-70
2022/02/07 09:55:24;;;;;;;9.60;2.80;;;;;;;;;;4975530;28;20227;-71
2022/02/07 09:57:53;;;;;;;31.00;13.20;;;;;;;;;;4992851;28;20493;-70
2022/02/07 10:00:28;;;;;;;38.97;18.27;;;;;;;;;;4975268;28;20018;-70
2022/02/07 10:03:09;;;;;;;22.98;8.95;;;;;;;;;;4992133;28;20378;-70
2022/02/07 10:05:46;;;;;;;13.65;5.35;;;;;;;;;;4992908;28;20092;-73
2022/02/07 10:08:19;;;;;;;39.63;16.15;;;;;;;;;;4974545;28;20026;-74
2022/02/07 10:11:07;;;;;;;49.17;21.23;;;;;;;;;;4975640;28;20142;-74
2022/02/07 10:14:05;;;;;;;15.13;5.18;;;;;;;;;;4992578;28;20150;-73
2022/02/07 10:19:46;;;;;;;33.47;14.15;;;;;;;;;;4993470;28;20035;-74
2022/02/07 10:43:55;;;;;;;41.50;16.02;;;;;;;;;;4992893;28;20027;-72
2022/02/07 10:48:32;;;;;;;21.85;7.13;;;;;;;;;;4999873;28;20061;-73
2022/02/07 10:51:07;;;;;;;15.10;4.90;;;;;;;;;;4978598;28;20090;-72
2022/02/07 10:53:44;;;;;;;21.23;6.60;;;;;;;;;;4977066;28;20026;-73
2022/02/07 10:56:11;;;;;;;40.42;15.60;;;;;;;;;;4997509;28;20018;-74
2022/02/07 10:58:38;;;;;;;23.48;9.35;;;;;;;;;;4979574;28;20567;-73
2022/02/07 11:03:46;;;;;;;15.85;7.00;;;;;;;;;;4996328;28;20500;-73
2022/02/07 11:06:15;;;;;;;16.80;6.07;;;;;;;;;;5001061;28;20048;-74
2022/02/07 11:08:49;;;;;;;;;;;;;;;;;;;;;
2022/02/07 11:13:54;;;;;;;;;;;;;;;;;;;;;
2022/02/07 11:16:17;;;;;;;21.60;8.63;;;;;;;;;;5002918;28;20141;-73
2022/02/07 11:18:50;;;;;;;18.50;6.90;;;;;;;;;;4997119;28;20480;-73
2022/02/07 11:21:25;;;;;;;28.33;8.35;;;;;;;;;;4997275;28;20476;-73
2022/02/07 11:24:19;;;;;;;26.92;9.02;;;;;;;;;;4996488;28;20370;-73
2022/02/07 11:26:49;;;;;;;43.45;16.13;;;;;;;;;;4967054;28;20046;-73
2022/02/07 11:29:38;;;;;;;26.58;10.55;;;;;;;;;;4979489;28;20023;-73
2022/02/07 11:32:04;;;;;;;24.80;8.23;;;;;;;;;;4996227;28;20061;-73
2022/02/07 11:34:49;;;;;;;24.23;7.03;;;;;;;;;;4995374;28;20031;-74
2022/02/07 11:37:19;;;;;;;31.70;8.73;;;;;;;;;;4996131;28;20480;-73
2022/02/07 11:39:48;;;;;;;31.70;8.85;;;;;;;;;;4995742;28;20042;-73
2022/02/07 11:42:14;;;;;;;37.45;13.98;;;;;;;;;;4996467;28;20027;-74
2022/02/07 11:44:43;;;;;;;21.85;8.32;;;;;;;;;;4995527;28;20033;-73
2022/02/07 11:47:28;;;;;;;24.88;8.70;;;;;;;;;;4995999;28;20030;-74
2022/02/07 11:50:03;;;;;;;29.80;11.55;;;;;;;;;;4995831;28;20031;-73
2022/02/07 11:52:36;;;;;;;25.17;8.50;;;;;;;;;;4977458;28;20061;-72
2022/02/07 11:55:07;;;;;;;38.38;15.00;;;;;;;;;;4995376;28;20027;-73
2022/02/07 11:57:36;;;;;;;;;;;;;;;;;;4996628;28;20022;-73
2022/02/07 12:00:10;;;;;;;20.38;6.05;;;;;;;;;;4995885;28;19937;-74
2022/02/07 12:02:37;;;;;;;29.58;9.27;;;;;;;;;;4995871;28;20033;-74
2022/02/07 12:05:07;;;;;;;30.40;10.13;;;;;;;;;;4994414;28;20495;-73
2022/02/07 12:07:37;;;;;;;23.08;6.78;;;;;;;;;;4977774;28;20586;-74
2022/02/07 12:10:14;;;;;;;31.50;10.55;;;;;;;;;;4995657;28;20030;-74
2022/02/07 12:12:41;;;;;;;26.65;9.23;;;;;;;;;;4978345;28;20026;-73
2022/02/07 12:15:35;;;;;;;52.30;19.23;;;;;;;;;;4997154;28;20399;-74
2022/02/07 12:18:17;;;;;;;32.20;11.18;;;;;;;;;;4998761;28;20030;-74
2022/02/07 12:20:44;;;;;;;22.98;5.95;;;;;;;;;;4997598;28;20392;-74
2022/02/07 12:23:10;;;;;;;21.55;7.63;;;;;;;;;;4995306;28;20485;-74
2022/02/07 12:25:37;;;;;;;21.00;6.95;;;;;;;;;;4995088;28;20125;-73
2022/02/07 12:28:07;;;;;;;25.65;10.27;;;;;;;;;;4995543;28;20080;-73
2022/02/07 12:30:48;;;;;;;25.83;9.60;;;;;;;;;;4977629;28;20030;-74
2022/02/07 12:33:17;;;;;;;18.77;6.97;;;;;;;;;;4977282;28;20071;-73
2022/02/07 12:35:43;;;;;;;32.92;10.07;;;;;;;;;;4995104;28;20040;-73
2022/02/07 12:38:09;;;;;;;26.65;6.97;;;;;;;;;;4995143;28;20046;-73
2022/02/07 12:40:35;;;;;;;25.85;7.05;;;;;;;;;;4994961;28;20029;-73
2022/02/07 12:43:05;;;;;;;32.45;10.50;;;;;;;;;;4996596;28;20508;-73
2022/02/07 12:45:31;;;;;;;29.73;9.60;;;;;;;;;;4995254;28;20041;-74
2022/02/07 12:48:02;;;;;;;27.90;9.23;;;;;;;;;;4995409;28;20033;-73
2022/02/07 12:50:29;;;;;;;42.80;15.43;;;;;;;;;;4995455;28;20023;-74
2022/02/07 12:52:56;;;;;;;20.58;7.35;;;;;;;;;;4992908;28;20049;-74
2022/02/07 12:55:22;;;;;;;27.38;9.20;;;;;;;;;;4977526;28;20026;-72
2022/02/07 12:57:48;;;;;;;31.83;11.75;;;;;;;;;;4995294;28;20023;-74
2022/02/07 13:00:16;;;;;;;24.77;7.22;;;;;;;;;;4994734;28;20030;-73
2022/02/07 13:02:46;;;;;;;22.60;6.95;;;;;;;;;;4994421;28;20026;-72
2022/02/07 13:05:13;;;;;;;27.98;9.35;;;;;;;;;;4994377;28;20030;-73
2022/02/07 13:07:46;;;;;;;21.10;7.60;;;;;;;;;;4994507;28;20035;-73
2022/02/07 13:10:18;;;;;;;36.28;10.98;;;;;;;;;;4994686;28;20037;-74
2022/02/07 13:15:22;;;;;;;27.58;8.88;;;;;;;;;;4994219;28;20034;-73
2022/02/07 13:17:52;;;;;;;24.88;7.75;;;;;;;;;;4994021;28;20022;-73
2022/02/07 13:20:19;;;;;;;31.95;9.75;;;;;;;;;;4994412;28;20026;-74
2022/02/07 13:22:45;;;;;;;27.17;9.90;;;;;;;;;;4993467;28;20105;-72
2022/02/07 13:25:13;;;;;;;16.73;5.63;;;;;;;;;;4993916;28;20030;-74
2022/02/07 13:27:39;;;;;;;23.50;6.22;;;;;;;;;;5037276;23;20119;-71
2022/02/07 13:30:09;;;;;;;24.25;7.22;;;;;;;;;;5032819;28;20434;-72
2022/02/07 13:32:35;;;;;;;27.83;8.30;;;;;;;;;;5031805;28;20553;-70
2022/02/07 13:35:07;;;;;;;23.77;7.10;;;;;;;;;;5031971;28;20029;-71
2022/02/07 13:37:36;;;;;;;28.92;9.18;;;;;;;;;;5032650;28;20022;-70
2022/02/07 13:40:12;;;;;;;24.98;7.32;;;;;;;;;;5032689;28;20025;-70
2022/02/07 13:42:56;;;;;;;34.83;11.18;;;;;;;;;;5032329;28;20097;-69
2022/02/07 13:45:23;;;;;;;23.17;5.38;;;;;;;;;;5032669;28;20105;-70
2022/02/07 13:47:51;;;;;;;34.15;11.23;;;;;;;;;;5032675;28;20442;-72
2022/02/07 13:50:18;;;;;;;28.33;7.47;;;;;;;;;;5032530;28;20479;-70
2022/02/07 13:52:45;;;;;;;21.30;6.20;;;;;;;;;;5014300;28;20030;-71
2022/02/07 13:55:11;;;;;;;16.75;3.85;;;;;;;;;;5032440;28;20052;-70
2022/02/07 13:57:47;;;;;;;17.50;4.28;;;;;;;;;;5032463;28;20025;-70
2022/02/07 14:00:15;;;;;;;16.10;6.60;;;;;;;;;;5032383;28;20033;-72
2022/02/07 14:02:41;;;;;;;10.32;3.35;;;;;;;;;;5014131;28;20076;-71
2022/02/07 14:05:08;;;;;;;9.95;3.25;;;;;;;;;;5031663;28;20443;-72
2022/02/07 14:07:48;;;;;;;20.80;5.05;;;;;;;;;;5032158;28;20487;-71
2022/02/07 14:10:21;;;;;;;16.75;6.22;;;;;;;;;;5032619;28;20466;-72
2022/02/07 14:12:47;;;;;;;10.85;3.97;;;;;;;;;;5031770;28;20033;-70
2022/02/07 14:15:13;;;;;;;13.82;4.05;;;;;;;;;;5032385;28;20439;-70
2022/02/07 14:17:44;;;;;;;15.05;3.72;;;;;;;;;;5032455;28;20487;-70
2022/02/07 14:20:17;;;;;;;16.48;5.80;;;;;;;;;;5032092;28;20040;-70
2022/02/07 14:22:43;;;;;;;12.63;4.32;;;;;;;;;;5012235;28;20060;-71
2022/02/07 14:25:10;;;;;;;7.18;3.47;;;;;;;;;;5030736;28;20623;-70
2022/02/07 14:27:36;;;;;;;10.88;3.03;;;;;;;;;;5032289;28;20387;-71
2022/02/07 14:30:04;;;;;;;16.77;6.43;;;;;;;;;;5013489;28;20013;-71
2022/02/07 14:32:30;;;;;;;16.80;4.97;;;;;;;;;;5031905;28;20061;-70
2022/02/07 14:34:56;;;;;;;14.40;4.93;;;;;;;;;;5030983;28;20033;-70
2022/02/07 14:37:24;;;;;;;17.92;5.25;;;;;;;;;;5031914;28;20031;-71
2022/02/07 14:39:50;;;;;;;17.50;4.60;;;;;;;;;;5031801;28;20018;-71
2022/02/07 14:42:16;;;;;;;22.35;6.97;;;;;;;;;;5031979;28;20032;-71
2022/02/07 14:45:08;;;;;;;14.27;4.05;;;;;;;;;;5031437;28;20017;-70
2022/02/07 14:47:50;;;;;;;15.07;4.90;;;;;;;;;;5031751;28;20022;-71
2022/02/07 14:50:18;;;;;;;13.23;4.90;;;;;;;;;;5031704;28;20460;-71
2022/02/07 14:52:44;;;;;;;19.17;6.15;;;;;;;;;;5013628;28;20121;-71
2022/02/07 14:55:10;;;;;;;28.40;7.15;;;;;;;;;;5031485;28;20036;-70
2022/02/07 14:57:36;;;;;;;16.95;4.60;;;;;;;;;;5031351;28;20495;-71
2022/02/07 15:00:07;;;;;;;24.10;6.10;;;;;;;;;;5031660;28;20433;-72
2022/02/07 15:02:33;;;;;;;13.75;4.85;;;;;;;;;;5031699;28;20053;-71
2022/02/07 15:05:00;;;;;;;16.88;5.00;;;;;;;;;;5030821;28;20033;-69
2022/02/07 15:07:27;;;;;;;25.45;7.88;;;;;;;;;;5031682;28;20033;-72
2022/02/07 15:09:53;;;;;;;19.80;5.72;;;;;;;;;;5031741;28;20076;-71
2022/02/07 15:12:19;;;;;;;21.33;4.70;;;;;;;;;;5032035;28;20083;-72
2022/02/07 15:14:49;;;;;;;19.13;4.65;;;;;;;;;;5030716;28;20034;-70
2022/02/07 15:17:16;;;;;;;18.55;4.25;;;;;;;;;;5014007;28;20152;-71
2022/02/07 15:19:42;;;;;;;19.27;4.50;;;;;;;;;;5031620;28;20025;-71
2022/02/07 15:22:08;;;;;;;24.40;5.68;;;;;;;;;;5032062;28;20037;-72
2022/02/07 15:24:34;;;;;;;25.30;6.40;;;;;;;;;;5031331;28;20387;-72
2022/02/07 15:27:02;;;;;;;18.35;6.03;;;;;;;;;;5030984;28;20033;-72
2022/02/07 15:29:28;;;;;;;20.63;3.97;;;;;;;;;;5031520;28;20052;-70
2022/02/07 15:32:41;;;;;;;20.17;4.82;;;;;;;;;;5031680;28;20033;-71
2022/02/07 15:34:40;;;;;;;20.02;5.00;;;;;;;;;;5022890;28;20060;-71
2022/02/07 15:37:06;;;;;;;27.67;4.18;;;;;;;;;;5031426;28;20499;-71
2022/02/07 15:39:32;;;;;;;18.77;5.30;;;;;;;;;;5032138;28;20578;-71
2022/02/07 15:41:58;;;;;;;23.73;6.15;;;;;;;;;;5035184;28;20060;-70
2022/02/07 15:44:24;;;;;;;18.65;4.03;;;;;;;;;;5034168;28;20080;-71
2022/02/07 15:46:50;;;;;;;21.63;5.00;;;;;;;;;;5035073;28;20037;-71
2022/02/07 15:49:16;;;;;;;18.73;5.05;;;;;;;;;;5034971;28;20087;-71
2022/02/07 15:51:42;;;;;;;15.25;5.03;;;;;;;;;;5017317;28;20033;-71
2022/02/07 15:54:10;;;;;;;17.20;4.78;;;;;;;;;;5033105;28;20033;-71
2022/02/07 15:56:36;;;;;;;22.77;6.25;;;;;;;;;;5034183;28;20086;-71
2022/02/07 15:59:02;;;;;;;21.70;4.93;;;;;;;;;;5035093;28;20022;-70
2022/02/07 16:01:28;;;;;;;11.90;4.30;;;;;;;;;;5035055;28;20044;-71
2022/02/07 16:03:54;;;;;;;23.30;5.85;;;;;;;;;;5034108;28;20036;-71
2022/02/07 16:06:20;;;;;;;22.40;6.13;;;;;;;;;;5034651;28;20427;-71
2022/02/07 16:08:46;;;;;;;13.75;4.43;;;;;;;;;;5033313;28;20076;-71
2022/02/07 16:11:14;;;;;;;15.25;4.68;;;;;;;;;;5033052;28;20499;-71
2022/02/07 16:13:48;;;;;;;16.23;4.47;;;;;;;;;;5032687;28;20147;-71
2022/02/07 16:16:14;;;;;;;15.20;4.57;;;;;;;;;;5034253;28;20468;-71
2022/02/07 16:18:40;;;;;;;14.88;3.85;;;;;;;;;;5015646;28;20037;-72
2022/02/07 16:21:06;;;;;;;15.43;4.13;;;;;;;;;;5031816;28;20380;-71
2022/02/07 16:23:33;;;;;;;14.30;3.88;;;;;;;;;;5015945;28;20021;-71
2022/02/07 16:26:00;;;;;;;10.80;3.10;;;;;;;;;;5016587;28;20044;-71
2022/02/07 16:28:26;;;;;;;17.25;4.15;;;;;;;;;;5034476;28;20438;-71
2022/02/07 16:30:53;;;;;;;12.55;4.93;;;;;;;;;;5034320;28;20026;-70
2022/02/07 16:33:19;;;;;;;16.75;3.47;;;;;;;;;;5031915;28;20120;-71
2022/02/07 16:35:47;;;;;;;13.15;3.72;;;;;;;;;;5033800;28;20483;-70
2022/02/07 16:38:13;;;;;;;9.90;3.10;;;;;;;;;;5016496;28;20067;-71
2022/02/07 16:40:40;;;;;;;11.63;3.72;;;;;;;;;;5033677;28;20463;-70
2022/02/07 16:43:06;;;;;;;15.70;4.20;;;;;;;;;;5033272;28;20021;-70
2022/02/07 16:48:26;;;;;;;8.35;2.55;;;;;;;;;;5017585;28;20030;-72
2022/02/07 16:50:52;;;;;;;11.55;2.92;;;;;;;;;;5033698;28;20026;-72
2022/02/07 16:53:18;;;;;;;15.90;5.05;;;;;;;;;;5014145;28;20040;-72
2022/02/07 16:55:46;;;;;;;13.63;4.28;;;;;;;;;;5015534;28;20033;-71
2022/02/07 16:58:12;;;;;;;14.88;3.55;;;;;;;;;;5033188;28;20048;-70
2022/02/07 17:00:41;;;;;;;11.40;3.88;;;;;;;;;;5033060;28;20034;-71
2022/02/07 17:03:11;;;;;;;13.27;3.75;;;;;;;;;;5032317;28;20028;-71
2022/02/07 17:05:37;;;;;;;12.10;3.08;;;;;;;;;;5033164;28;20029;-71
2022/02/07 17:08:04;;;;;;;14.75;4.35;;;;;;;;;;5033249;28;20108;-72
2022/02/07 17:10:30;;;;;;;10.73;3.10;;;;;;;;;;5033458;28;20091;-70
2022/02/07 17:12:57;;;;;;;11.48;4.03;;;;;;;;;;5032543;28;20021;-69
2022/02/07 17:15:23;;;;;;;15.38;4.15;;;;;;;;;;5032819;28;20021;-71
2022/02/07 17:17:49;;;;;;;22.85;4.30;;;;;;;;;;5032652;28;20494;-70